Dades meteomassalio
Diari Summary for Abril 8, 2017 Units:  English    Metric   Both
« Previous Day
Next Day »
Diari Semanal Mensual Anual Personalitzat
  Maxima: Minima: Mijana:
Temperatura: TemperatureC °F 11.3 °F 20.1 °F
Rosada: DewpointC °F -0.7 °F 2.1 °F
Humitat: Humidity % 20 % 31 %
Velocitat del vent: WindSpeedKMH mph 0.0 mph 10.6 mph
Racha vent: WindSpeedGustKMH mph - -
Vent:- - ESE
Pressio: PressurehPa in 1018.8 in -
Pluja: 0.0 in    
Historical Graphs
 
 
Tabular Data for Abril 8, 2017
Time Temperature Dew Point Pressure Wind Wind Speed Wind Gust Humidity Rainfall Rate (Hourly) solar Conditions
TemperatureC °F DewpointC °F PressurehPa in Calm     Humidity % HourlyPrecipMM in SolarRadiationWatts/m^2 W/m2 Conditions
09:49 11.3 °F 5.4 °F 1022.6 in Calm     67 % 0.0 in 381.0 W/m2 OVC
09:54 11.7 °F 5.3 °F 1022.6 in Calm     65 % 0.0 in 399.0 W/m2 CLR
09:59 12.3 °F 5.5 °F 1022.6 in Calm     63 % 0.0 in 415.0 W/m2 CLR
10:04 12.8 °F 5.7 °F 1022.6 in Calm     62 % 0.0 in 432.0 W/m2 CLR
10:09 13.4 °F 6.1 °F 1022.2 in Calm     61 % 0.0 in 450.0 W/m2 CLR
10:14 13.9 °F 5.8 °F 1022.2 in Calm     58 % 0.0 in 466.0 W/m2 CLR
10:19 14.2 °F 5.6 °F 1022.2 in Calm     56 % 0.0 in 482.0 W/m2 CLR
10:24 14.5 °F 5.3 °F 1022.2 in Calm     54 % 0.0 in 494.0 W/m2 CLR
10:29 14.8 °F 5.0 °F 1022.2 in Calm     52 % 0.0 in 508.0 W/m2 CLR
10:34 15.2 °F 5.4 °F 1022.2 in Calm     52 % 0.0 in 524.0 W/m2 CLR
10:39 15.8 °F 5.1 °F 1022.2 in Calm     49 % 0.0 in 540.0 W/m2 CLR
10:44 16.2 °F 4.9 °F 1022.2 in ENE 1.9 mph   47 % 0.0 in 554.0 W/m2 CLR
10:49 16.4 °F 3.2 °F 1022.2 in Calm     41 % 0.0 in 570.0 W/m2 CLR
10:55 16.7 °F 4.1 °F 1022.2 in Calm     43 % 0.0 in 585.0 W/m2 CLR
11:00 16.9 °F 3.6 °F 1021.9 in Calm     41 % 0.0 in 599.0 W/m2 CLR
11:05 17.3 °F 3.9 °F 1021.9 in Calm     41 % 0.0 in 608.0 W/m2 CLR
11:10 17.6 °F 3.5 °F 1021.9 in NE 8.0 mph 8.0 mph 39 % 0.0 in 621.0 W/m2 CLR
11:15 17.9 °F 3.3 °F 1021.9 in ENE 5.6 mph   38 % 0.0 in 635.0 W/m2 CLR
11:20 18.3 °F 2.1 °F 1021.9 in Calm     34 % 0.0 in 652.0 W/m2 CLR
11:25 18.7 °F 2.9 °F 1021.9 in Calm     35 % 0.0 in 664.0 W/m2 CLR
11:30 19.2 °F 2.1 °F 1021.9 in Calm     32 % 0.0 in 673.0 W/m2 CLR
11:35 19.6 °F 2.4 °F 1021.9 in Calm     32 % 0.0 in 684.0 W/m2 CLR
11:40 19.8 °F 3.1 °F 1021.9 in Calm     33 % 0.0 in 698.0 W/m2 CLR
11:45 19.9 °F 2.7 °F 1021.9 in ENE 3.7 mph 3.7 mph 32 % 0.0 in 708.0 W/m2 CLR
11:50 20.1 °F 1.9 °F 1021.9 in Calm     30 % 0.0 in 717.0 W/m2 CLR
11:55 20.2 °F 3.4 °F 1021.9 in ENE 9.3 mph 9.3 mph 33 % 0.0 in 726.0 W/m2 CLR
12:00 20.5 °F 1.8 °F 1021.6 in ENE 5.6 mph 5.6 mph 29 % 0.0 in 740.0 W/m2 CLR
12:05 20.8 °F 1.6 °F 1021.6 in NNE 5.6 mph 5.6 mph 28 % 0.0 in 745.0 W/m2 CLR
12:10 21.0 °F 1.3 °F 1021.6 in NNE 5.6 mph 5.6 mph 27 % 0.0 in 756.0 W/m2 CLR
12:15 21.1 °F 1.9 °F 1021.6 in ENE 9.3 mph 9.3 mph 28 % 0.0 in 763.0 W/m2 CLR
12:20 21.1 °F 3.3 °F 1021.6 in ENE 11.3 mph 11.3 mph 31 % 0.0 in 772.0 W/m2 CLR
12:25 21.2 °F 3.3 °F 1021.6 in NNE 7.4 mph 7.4 mph 31 % 0.0 in 782.0 W/m2 CLR
12:30 21.3 °F 3.9 °F 1021.6 in ENE 11.1 mph 11.1 mph 32 % 0.0 in 784.0 W/m2 CLR
12:35 21.4 °F 4.9 °F 1021.6 in Calm     34 % 0.0 in 789.0 W/m2 CLR
12:40 21.5 °F 4.9 °F 1021.6 in North 3.7 mph 3.7 mph 34 % 0.0 in 803.0 W/m2 CLR
12:45 21.7 °F 5.6 °F 1021.6 in ENE 5.6 mph 5.6 mph 35 % 0.0 in 807.0 W/m2 CLR
12:50 21.6 °F 4.6 °F 1021.2 in Calm     33 % 0.0 in 816.0 W/m2 CLR
12:55 21.7 °F 4.7 °F 1021.2 in NE 1.9 mph 1.9 mph 33 % 0.0 in 819.0 W/m2 CLR
13:00 22.1 °F 4.6 °F 1021.2 in SE 7.4 mph 7.4 mph 32 % 0.0 in 830.0 W/m2 CLR
13:05 22.0 °F 2.7 °F 1021.2 in SE 17.7 mph 17.7 mph 28 % 0.0 in 835.0 W/m2 CLR
13:10 21.8 °F 1.9 °F 1021.2 in East 13.0 mph 13.0 mph 27 % 0.0 in 838.0 W/m2 CLR
13:15 21.7 °F 2.4 °F 1021.2 in East 13.0 mph 13.0 mph 28 % 0.0 in 838.0 W/m2 CLR
13:20 21.8 °F 1.9 °F 1020.9 in ESE 9.3 mph 9.3 mph 27 % 0.0 in 849.0 W/m2 CLR
13:25 22.1 °F 2.7 °F 1020.9 in ENE 14.5 mph 14.5 mph 28 % 0.0 in 847.0 W/m2 CLR
13:30 22.4 °F 3.4 °F 1020.9 in Calm     29 % 0.0 in 849.0 W/m2 CLR
13:35 22.8 °F 4.3 °F 1020.9 in SSE 9.3 mph 9.3 mph 30 % 0.0 in 856.0 W/m2 CLR
13:40 22.9 °F 1.8 °F 1020.5 in SSE 13.0 mph 13.0 mph 25 % 0.0 in 858.0 W/m2 CLR
13:41 23.0 °F 1.9 °F 1020.9 in SSE 13.0 mph 13.0 mph 25 % 0.0 in 856.0 W/m2 CLR
13:46 22.9 °F 2.9 °F 1020.5 in South 11.1 mph 11.1 mph 27 % 0.0 in 856.0 W/m2 CLR
13:51 23.1 °F 4.6 °F 1020.5 in East 11.1 mph 11.1 mph 30 % 0.0 in 860.0 W/m2 CLR
13:56 23.1 °F 1.4 °F 1020.5 in SSE 20.4 mph 20.4 mph 24 % 0.0 in 867.0 W/m2 CLR
14:01 22.9 °F 0.7 °F 1020.5 in SSE 11.1 mph 11.1 mph 23 % 0.0 in 867.0 W/m2 CLR
14:06 22.7 °F 1.1 °F 1020.5 in ESE 18.5 mph 18.5 mph 24 % 0.0 in 863.0 W/m2 CLR
14:11 22.8 °F 1.2 °F 1020.5 in SE 5.6 mph 5.6 mph 24 % 0.0 in 863.0 W/m2 CLR
14:16 22.9 °F 0.7 °F 1020.2 in ESE 14.8 mph 14.8 mph 23 % 0.0 in 861.0 W/m2 CLR
14:21 23.1 °F 1.4 °F 1020.2 in SE 9.3 mph 9.3 mph 24 % 0.0 in 861.0 W/m2 CLR
14:26 23.1 °F 1.4 °F 1020.2 in ESE 18.5 mph 18.5 mph 24 % 0.0 in 861.0 W/m2 CLR
14:31 23.1 °F 1.4 °F 1020.2 in SE 13.0 mph 13.0 mph 24 % 0.0 in 858.0 W/m2 CLR
14:36 23.1 °F 1.4 °F 1020.2 in SE 16.7 mph 16.7 mph 24 % 0.0 in 856.0 W/m2 CLR
14:41 23.0 °F 0.7 °F 1020.2 in SSE 6.4 mph 6.4 mph 23 % 0.0 in 849.0 W/m2 CLR
14:46 23.2 °F 0.9 °F 1020.2 in East 6.4 mph 6.4 mph 23 % 0.0 in 842.0 W/m2 CLR
14:51 23.2 °F 0.9 °F 1019.9 in East 16.7 mph 16.7 mph 23 % 0.0 in 838.0 W/m2 CLR
14:56 23.3 °F 1.6 °F 1019.9 in ENE 7.4 mph 7.4 mph 24 % 0.0 in 833.0 W/m2 CLR
15:01 23.5 °F 1.8 °F 1019.9 in SE 12.9 mph 12.9 mph 24 % 0.0 in 835.0 W/m2 CLR
15:06 23.5 °F 1.8 °F 1019.9 in East 13.0 mph 13.0 mph 24 % 0.0 in 830.0 W/m2 CLR
15:11 23.3 °F -0.2 °F 1019.9 in SE 18.5 mph 18.5 mph 21 % 0.0 in 821.0 W/m2 CLR
15:16 23.3 °F 0.3 °F 1019.9 in ESE 16.1 mph 16.1 mph 22 % 0.0 in 814.0 W/m2 CLR
15:21 23.4 °F -0.2 °F 1019.9 in East 20.9 mph 20.9 mph 21 % 0.0 in 809.0 W/m2 CLR
15:26 23.6 °F 0.0 °F 1019.5 in East 18.5 mph 18.5 mph 21 % 0.0 in 803.0 W/m2 CLR
15:31 23.7 °F 0.1 °F 1019.5 in East 11.3 mph 11.3 mph 21 % 0.0 in 793.0 W/m2 CLR
15:36 23.4 °F -0.2 °F 1019.5 in East 16.7 mph 16.7 mph 21 % 0.0 in 788.0 W/m2 CLR
15:41 23.5 °F 0.6 °F 1019.5 in ENE 9.3 mph 9.3 mph 22 % 0.0 in 782.0 W/m2 CLR
15:46 23.8 °F 0.1 °F 1019.5 in ESE 18.5 mph 18.5 mph 21 % 0.0 in 773.0 W/m2 CLR
15:51 23.8 °F -0.6 °F 1019.5 in ESE 11.1 mph 11.1 mph 20 % 0.0 in 768.0 W/m2 CLR
15:56 23.6 °F -0.7 °F 1019.5 in ESE 19.3 mph 19.3 mph 20 % 0.0 in 756.0 W/m2 CLR
16:01 23.4 °F 0.5 °F 1019.5 in SE 7.4 mph 7.4 mph 22 % 0.0 in 747.0 W/m2 CLR
16:06 23.6 °F 0.0 °F 1019.2 in ENE 11.1 mph 11.1 mph 21 % 0.0 in 737.0 W/m2 CLR
16:11 23.8 °F 0.1 °F 1019.2 in ENE 13.0 mph 13.0 mph 21 % 0.0 in 728.0 W/m2 CLR
16:16 23.8 °F 0.1 °F 1019.2 in SE 18.5 mph 18.5 mph 21 % 0.0 in 719.0 W/m2 CLR
16:21 23.7 °F 0.7 °F 1019.2 in SE 13.0 mph 13.0 mph 22 % 0.0 in 707.0 W/m2 CLR
16:22 23.7 °F 0.1 °F 1019.2 in ESE 13.0 mph 13.0 mph 21 % 0.0 in 705.0 W/m2 CLR
16:26 23.6 °F 0.0 °F 1019.2 in ESE 20.4 mph 20.4 mph 21 % 0.0 in 694.0 W/m2 CLR
16:31 23.5 °F 0.6 °F 1019.2 in SSE 22.2 mph 22.2 mph 22 % 0.0 in 680.0 W/m2 CLR
16:36 23.6 °F -0.1 °F 1019.2 in East 13.0 mph 13.0 mph 21 % 0.0 in 670.0 W/m2 CLR
16:37 23.6 °F -0.1 °F 1019.2 in ESE 16.7 mph 16.7 mph 21 % 0.0 in 668.0 W/m2 CLR
16:42 23.6 °F 0.6 °F 1019.2 in SE 13.0 mph 13.0 mph 22 % 0.0 in 656.0 W/m2 CLR
16:47 23.7 °F 0.7 °F 1019.2 in SE 16.7 mph 16.7 mph 22 % 0.0 in 645.0 W/m2 CLR
16:52 23.5 °F 0.6 °F 1019.2 in East 13.0 mph 13.0 mph 22 % 0.0 in 631.0 W/m2 CLR
16:57 23.5 °F 1.2 °F 1019.2 in East 18.5 mph 18.5 mph 23 % 0.0 in 617.0 W/m2 CLR
17:02 23.4 °F 1.1 °F 1019.2 in East 9.3 mph 9.3 mph 23 % 0.0 in 603.0 W/m2 CLR
17:07 23.3 °F 1.0 °F 1019.2 in SE 13.0 mph 13.0 mph 23 % 0.0 in 589.0 W/m2 CLR
17:12 23.3 °F 0.9 °F 1019.2 in ESE 22.2 mph 22.2 mph 23 % 0.0 in 577.0 W/m2 CLR
17:17 23.3 °F 1.6 °F 1019.2 in ESE 18.5 mph 18.5 mph 24 % 0.0 in 563.0 W/m2 CLR
17:22 23.2 °F 1.4 °F 1018.8 in SE 22.2 mph 22.2 mph 24 % 0.0 in 550.0 W/m2 CLR
17:27 23.2 °F 1.4 °F 1018.8 in SE 24.1 mph 24.1 mph 24 % 0.0 in 534.0 W/m2 CLR
17:32 23.2 °F 1.4 °F 1019.2 in SE 16.7 mph 16.7 mph 24 % 0.0 in 520.0 W/m2 CLR
17:37 23.1 °F 1.4 °F 1019.2 in ESE 24.1 mph 24.1 mph 24 % 0.0 in 504.0 W/m2 CLR
17:42 23.1 °F 1.4 °F 1018.8 in SE 22.2 mph 22.2 mph 24 % 0.0 in 489.0 W/m2 CLR
17:47 23.1 °F 1.4 °F 1019.2 in SE 19.3 mph 19.3 mph 24 % 0.0 in 471.0 W/m2 CLR
17:52 23.0 °F 1.3 °F 1019.2 in East 18.5 mph 18.5 mph 24 % 0.0 in 457.0 W/m2 CLR
17:57 23.1 °F 1.4 °F 1019.2 in East 14.8 mph 14.8 mph 24 % 0.0 in 441.0 W/m2 CLR
18:03 22.9 °F 0.7 °F 1019.2 in ESE 22.2 mph 22.2 mph 23 % 0.0 in 427.0 W/m2 CLR
18:08 22.8 °F 1.2 °F 1019.2 in ESE 24.1 mph 24.1 mph 24 % 0.0 in 411.0 W/m2 CLR
18:13 22.8 °F 1.2 °F 1019.2 in ESE 16.1 mph 16.1 mph 24 % 0.0 in 392.0 W/m2 CLR
18:18 22.8 °F 0.6 °F 1019.2 in ESE 16.7 mph 16.7 mph 23 % 0.0 in 376.0 W/m2 CLR
18:23 22.7 °F 0.4 °F 1019.2 in ESE 20.9 mph 20.9 mph 23 % 0.0 in 360.0 W/m2 CLR
18:28 22.6 °F 0.4 °F 1019.2 in ESE 14.8 mph 14.8 mph 23 % 0.0 in 345.0 W/m2 CLR
18:33 22.6 °F 1.0 °F 1019.2 in SE 16.7 mph 16.7 mph 24 % 0.0 in 327.0 W/m2 CLR
18:38 22.4 °F 0.3 °F 1019.2 in ESE 18.5 mph 18.5 mph 23 % 0.0 in 309.0 W/m2 CLR
18:43 22.4 °F 0.8 °F 1019.2 in SE 22.2 mph 22.2 mph 24 % 0.0 in 294.0 W/m2 CLR
18:48 22.3 °F 1.3 °F 1019.2 in ESE 22.5 mph 22.5 mph 25 % 0.0 in 276.0 W/m2 CLR
18:53 22.2 °F 0.6 °F 1019.2 in SE 22.2 mph 22.2 mph 24 % 0.0 in 257.0 W/m2 CLR
18:58 22.1 °F 1.2 °F 1019.2 in SE 20.4 mph 20.4 mph 25 % 0.0 in 239.0 W/m2 CLR
19:03 22.0 °F 1.1 °F 1019.5 in SE 20.9 mph 20.9 mph 25 % 0.0 in 221.0 W/m2 CLR
19:08 21.9 °F 1.5 °F 1019.5 in SE 22.2 mph 22.2 mph 26 % 0.0 in 207.0 W/m2 CLR
19:13 21.8 °F 1.4 °F 1019.5 in SE 18.5 mph 18.5 mph 26 % 0.0 in 181.0 W/m2 CLR
19:18 21.8 °F 2.0 °F 1019.5 in SSE 20.4 mph 20.4 mph 27 % 0.0 in 163.0 W/m2 CLR
19:23 21.6 °F 1.8 °F 1019.5 in SE 22.2 mph 22.2 mph 27 % 0.0 in 146.0 W/m2 CLR
19:28 21.5 °F 1.7 °F 1019.5 in SE 16.7 mph 16.7 mph 27 % 0.0 in 127.0 W/m2 CLR
19:33 21.3 °F 2.1 °F 1019.5 in SSE 22.2 mph 22.2 mph 28 % 0.0 in 111.0 W/m2 CLR
19:38 21.2 °F 1.9 °F 1019.5 in SE 14.8 mph 14.8 mph 28 % 0.0 in 91.0 W/m2 CLR
19:43 21.1 °F 1.9 °F 1019.5 in SE 13.0 mph 13.0 mph 28 % 0.0 in 77.0 W/m2 FEW
19:48 21.0 °F 1.3 °F 1019.5 in SE 16.7 mph 16.7 mph 27 % 0.0 in 51.0 W/m2 SCT
19:53 20.8 °F 1.6 °F 1019.5 in SSE 13.0 mph 13.0 mph 28 % 0.0 in 46.0 W/m2 SCT
19:58 20.7 °F 2.0 °F 1019.9 in SSE 14.8 mph 14.8 mph 29 % 0.0 in 35.0 W/m2 BKN
20:03 20.4 °F 1.8 °F 1019.9 in SE 18.5 mph 18.5 mph 29 % 0.0 in 26.0 W/m2 BKN
20:08 20.3 °F 1.7 °F 1019.9 in SE 16.7 mph 16.7 mph 29 % 0.0 in 16.0 W/m2 BKN
20:13 20.1 °F 1.9 °F 1019.9 in SSE 16.7 mph 16.7 mph 30 % 0.0 in 14.0 W/m2 BKN
20:18 19.8 °F 1.7 °F 1019.9 in SE 13.0 mph 13.0 mph 30 % 0.0 in 11.0 W/m2 BKN
20:23 19.6 °F 2.0 °F 1019.9 in SE 11.1 mph 11.1 mph 31 % 0.0 in 9.0 W/m2 BKN
20:28 19.4 °F 2.3 °F 1019.9 in SE 14.8 mph 14.8 mph 32 % 0.0 in 7.0 W/m2 BKN
20:33 19.1 °F 2.0 °F 1019.9 in SE 12.9 mph 12.9 mph 32 % 0.0 in 5.0 W/m2 OVC
20:38 18.9 °F 2.3 °F 1019.9 in SSE 12.9 mph 12.9 mph 33 % 0.0 in 0.0 W/m2 OVC
20:44 18.7 °F 2.5 °F 1019.9 in SSE 9.7 mph 9.7 mph 34 % 0.0 in 0.0 W/m2 CLR
20:49 18.4 °F 2.7 °F 1020.2 in SSE 11.1 mph 11.1 mph 35 % 0.0 in 0.0 W/m2 CLR
20:54 18.1 °F 2.8 °F 1020.2 in SSE 11.1 mph 11.1 mph 36 % 0.0 in 0.0 W/m2 CLR
20:59 17.9 °F 2.6 °F 1020.2 in SSE 11.1 mph 11.1 mph 36 % 0.0 in 0.0 W/m2 CLR
21:04 17.7 °F 2.4 °F 1020.2 in SE 13.0 mph 13.0 mph 36 % 0.0 in 0.0 W/m2 CLR
21:09 17.6 °F 2.7 °F 1020.5 in SE 9.3 mph 9.3 mph 37 % 0.0 in 0.0 W/m2 CLR
21:14 17.4 °F 2.6 °F 1020.5 in SSE 7.4 mph 7.4 mph 37 % 0.0 in 0.0 W/m2 CLR
21:19 17.2 °F 2.8 °F 1020.5 in SE 9.7 mph 9.7 mph 38 % 0.0 in 0.0 W/m2 CLR
21:24 17.1 °F 2.7 °F 1020.9 in SSE 9.7 mph 9.7 mph 38 % 0.0 in 0.0 W/m2 CLR
21:29 17.0 °F 2.2 °F 1020.9 in SSE 13.0 mph 13.0 mph 37 % 0.0 in 0.0 W/m2 CLR
21:34 16.9 °F 2.5 °F 1020.9 in SSE 11.3 mph 11.3 mph 38 % 0.0 in 0.0 W/m2 CLR
21:39 16.9 °F 2.4 °F 1020.9 in SSE 11.3 mph 11.3 mph 38 % 0.0 in 0.0 W/m2 CLR
21:44 16.9 °F 2.4 °F 1021.2 in South 5.6 mph 5.6 mph 38 % 0.0 in 0.0 W/m2 CLR
21:49 16.8 °F 2.1 °F 1021.2 in SE 5.6 mph 5.6 mph 37 % 0.0 in 0.0 W/m2 CLR
21:54 16.7 °F 2.3 °F 1021.2 in SE 6.4 mph 6.4 mph 38 % 0.0 in 0.0 W/m2 CLR
21:59 16.3 °F 2.3 °F 1021.2 in ESE 6.4 mph 6.4 mph 39 % 0.0 in 0.0 W/m2 CLR
22:04 15.9 °F 2.3 °F 1021.2 in SE 9.3 mph 9.3 mph 40 % 0.0 in 0.0 W/m2 CLR
22:09 15.7 °F 2.1 °F 1021.2 in SE 7.4 mph 7.4 mph 40 % 0.0 in 0.0 W/m2 CLR
22:14 15.5 °F 2.3 °F 1021.2 in ESE 7.4 mph 7.4 mph 41 % 0.0 in 0.0 W/m2 CLR
22:19 15.3 °F 2.2 °F 1021.6 in SE 5.6 mph 5.6 mph 41 % 0.0 in 0.0 W/m2 CLR
22:24 15.2 °F 2.4 °F 1021.6 in Calm     42 % 0.0 in 0.0 W/m2 CLR
22:29 15.0 °F 2.2 °F 1021.6 in Calm     42 % 0.0 in 0.0 W/m2 CLR
22:34 14.8 °F 2.3 °F 1021.6 in Calm     43 % 0.0 in 0.0 W/m2 CLR
22:39 14.5 °F 2.1 °F 1021.6 in Calm     43 % 0.0 in 0.0 W/m2 CLR
22:44 14.3 °F 2.6 °F 1021.9 in Calm     45 % 0.0 in 0.0 W/m2 CLR
22:49 14.0 °F 2.2 °F 1021.9 in Calm     45 % 0.0 in 0.0 W/m2 CLR
22:54 13.7 °F 2.3 °F 1021.9 in Calm     46 % 0.0 in 0.0 W/m2 CLR
22:59 13.4 °F 2.0 °F 1021.9 in Calm     46 % 0.0 in 0.0 W/m2 CLR
23:04 13.3 °F 1.9 °F 1021.9 in Calm     46 % 0.0 in 0.0 W/m2 CLR
23:09 13.3 °F 1.9 °F 1021.9 in Calm     46 % 0.0 in 0.0 W/m2 CLR
23:14 13.3 °F 2.2 °F 1021.9 in Calm     47 % 0.0 in 0.0 W/m2 CLR
23:19 13.1 °F 2.1 °F 1022.2 in Calm     47 % 0.0 in 0.0 W/m2 CLR
Lo Temps de Massalio
Compliments of Weather Underground - 768 kb